Alta, Wyoming
Current Conditions -  °F | °C
As of 11:56 PM on Thursday 18 Dec 2014 (Local Time) from KDIJ Reporting Station
Overcast Overcast  
Wind Chill: -6°   Ceiling: 5000
Heat Index: -2°   Visibility: 10mi
Dew Point: -5°   Wind: 9mph
Humidity: 78%   Direction: 160°SSE
Pressure: 30.1"   Gusts: NA
Location:  43.77°N, 110.98°W
Report Text: KDIJ 190656Z AUTO 16008KT 10SM FEW026 OVC050 M02/M05 A3010 RMK AO2 T10161050 SLP194
Loading
Personal Weather Stations






























Interactive Weather Map New forecast layout! Learn more

10-Day Weather Forecast

Advertisements
Track Severe Weather on mobile